Latest Weather Observations for Bombala AWS

IDN60801

Issued at 10:52 am EST Tuesday 19 June 2018 (issued every 10 minutes, with the page automatically refreshed every 10 minutes)

About weather observations | Map of weather stations | Latest weather observations for NSW | Other Formats
Station Details ID: 070328 Name: BOMBALA AWS Lat: -37.00 Lon: 149.23 Height: 760.5 m
Data from the previous 72 hours. | See also: Recent months at Bombala AWS
Date/Time
EST
Temp
°C
App
Temp
°C
Dew
Point
°C
Rel
Hum
%
Delta-T
°C
Wind Press
QNH
hPa
Press
MSL
hPa
Rain since
9am
mm
Dir  Spd
km/h
Gust
km/h
Spd
kts
Gust
kts
19/10:30am 6.2 2.3 5.5 95 0.3 SSW 15 20 8 11 1027.4 1028.7 0.2
19/10:00am 5.8 1.9 5.2 96 0.3 SW 15 20 8 11 1027.3 1028.6 0.2
19/09:30am 5.6 2.4 5.2 97 0.2 SW 11 13 6 7 1027.3 1028.6 0.2
19/09:00am 5.3 2.0 4.3 93 0.4 SSW 11 15 6 8 1026.9 1028.1 9.2
19/08:30am 5.3 1.2 4.3 93 0.4 SW 15 20 8 11 1026.3 1027.6 9.2
19/08:00am 5.0 0.8 3.8 92 0.5 SSW 15 19 8 10 1026.1 1027.4 9.2
19/07:30am 4.7 0.8 3.2 90 0.6 SSW 13 19 7 10 1026.0 1027.2 9.2
19/07:00am 5.1 0.5 3.8 91 0.6 SSW 17 22 9 12 1025.7 1026.9 9.2
19/06:30am 5.1 0.9 3.9 92 0.5 SSW 15 19 8 10 1025.4 1026.6 9.2
19/06:00am 4.8 0.6 3.9 94 0.4 S 15 19 8 10 1025.1 1026.4 9.2
19/05:30am 4.8 0.2 3.9 94 0.4 S 17 24 9 13 1024.8 1026.0 9.2
19/05:00am 4.9 0.4 4.2 95 0.3 S 17 22 9 12 1024.7 1025.9 9.2
19/04:30am 4.8 -0.3 4.1 95 0.3 S 20 28 11 15 1024.5 1025.7 9.2
19/04:00am 4.7 0.2 4.1 96 0.3 SSW 17 22 9 12 1024.5 1025.7 9.2
19/03:30am 4.8 -0.2 3.6 92 0.5 S 19 24 10 13 1024.3 1025.5 9.2
19/03:00am 4.9 -1.1 3.6 91 0.6 S 24 33 13 18 1024.1 1025.3 9.2
19/02:30am 4.8 -0.2 3.6 92 0.5 S 19 26 10 14 1024.2 1025.4 9.2
19/02:00am 4.6 -1.4 3.6 93 0.4 S 24 32 13 17 1024.1 1025.3 9.2
19/01:30am 4.4 0.6 3.7 95 0.3 S 13 20 7 11 1024.2 1025.4 9.0
19/01:00am 4.5 -0.8 3.2 91 0.6 S 20 30 11 16 1023.9 1025.1 9.0
19/12:30am 4.5 -2.3 3.0 90 0.6 S 28 37 15 20 1024.0 1025.2 8.8
19/12:00am 4.8 -1.6 3.3 90 0.6 S 26 35 14 19 1023.7 1024.9 8.8
 
Date/Time
EST
Temp
°C
App
Temp
°C
Dew
Point
°C
Rel
Hum
%
Delta-T
°C
Wind Press
QNH
hPa
Press
MSL
hPa
Rain since
9am
mm
Dir  Spd
km/h
Gust
km/h
Spd
kts
Gust
kts
18/11:30pm 4.8 -1.3 2.8 87 0.9 SSW 24 32 13 17 1023.5 1024.7 8.8
18/11:00pm 4.6 -0.5 3.3 91 0.6 SSW 19 28 10 15 1023.9 1025.1 8.8
18/10:30pm 4.2 -1.2 2.7 90 0.6 SSW 20 28 11 15 1023.6 1024.8 8.8
18/10:00pm 4.7 -1.0 2.9 88 0.8 S 22 37 12 20 1023.3 1024.5 8.6
18/09:30pm 4.2 -1.2 2.6 89 0.7 SSW 20 30 11 16 1023.1 1024.3 8.6
18/09:00pm 4.6 -1.4 3.4 92 0.5 S 24 35 13 19 1023.0 1024.2 8.4
18/08:30pm 4.1 -3.0 3.4 95 0.3 S 30 39 16 21 1022.7 1023.8 8.4
18/08:16pm 4.3 -2.5 3.3 93 0.4 SSW 28 48 15 26 1022.6 1023.7 8.2
18/08:00pm 3.9 -2.6 2.6 91 0.5 SSW 26 39 14 21 1022.6 1023.7 8.2
18/07:30pm 4.0 -1.1 3.0 93 0.4 SSW 19 24 10 13 1022.6 1023.7 7.4
18/07:00pm 4.4 1.0 3.8 96 0.3 SSW 11 28 6 15 1022.2 1023.4 7.2
18/06:30pm 3.5 0.7 2.9 96 0.3 SSE 7 9 4 5 1022.0 1023.2 6.6
18/06:00pm 3.7 -0.7 2.5 92 0.5 SSW 15 22 8 12 1021.8 1023.0 6.2
18/05:30pm 4.0 -1.8 2.5 90 0.6 SW 22 28 12 15 1021.5 1022.6 5.8
18/05:00pm 4.9 -2.0 2.4 84 1.1 SSW 28 37 15 20 1021.2 1022.3 5.2
18/04:30pm 5.5 -2.7 2.5 81 1.3 SSW 35 50 19 27 1021.1 1022.2 5.2
18/04:00pm 5.8 -2.3 3.3 84 1.1 SSW 35 57 19 31 1020.5 1021.7 5.2
18/03:53pm 5.7 -2.7 3.5 86 1.0 SSW 37 56 20 30 1020.5 1021.7 5.2
18/03:30pm 6.0 -1.5 4.2 88 0.8 SSW 33 50 18 27 1020.2 1021.3 5.2
18/03:08pm 6.1 -1.8 4.1 87 0.9 SSW 35 56 19 30 1020.1 1021.2 5.2
18/03:00pm 6.4 -1.5 4.6 88 0.8 SSW 35 48 19 26 1019.9 1021.0 5.2
18/02:30pm 6.7 0.7 5.3 91 0.6 SSW 26 37 14 20 1019.8 1020.9 5.0
18/02:03pm 7.0 0.7 5.6 91 0.7 S 28 48 15 26 1019.3 1020.4 4.8
18/02:00pm 6.9 1.8 6.2 95 0.3 S 22 44 12 24 1019.4 1020.6 4.8
18/01:30pm 6.1 0.8 5.2 94 0.4 S 22 39 12 21 1019.6 1020.7 4.4
18/01:00pm 5.8 -1.7 4.3 90 0.7 SSW 33 44 18 24 1019.7 1020.8 3.0
18/12:32pm 7.3 -0.8 5.3 87 0.9 SSW 37 56 20 30 1019.3 1020.4 1.4
18/12:30pm 7.4 -0.7 5.4 87 0.9 SSW 37 50 20 27 1019.3 1020.4 1.2
18/12:00pm 7.4 1.5 6.0 91 0.7 SSW 26 35 14 19 1019.6 1020.7 1.0
18/11:30am 7.4 2.3 6.0 91 0.7 SSW 22 33 12 18 1019.8 1020.9 1.0
18/11:00am 7.4 1.4 5.4 87 0.9 SSW 26 37 14 20 1019.7 1020.8 0.8
18/10:30am 6.7 0.7 5.2 90 0.7 SSW 26 39 14 21 1019.9 1021.0 0.8
18/10:00am 6.6 1.3 5.1 90 0.7 SW 22 41 12 22 1020.0 1021.1 0.6
18/09:30am 6.2 0.5 4.7 90 0.7 SSW 24 33 13 18 1019.8 1020.9 0.6
18/09:00am 6.4 0.3 4.7 89 0.8 SSW 26 37 14 20 1019.2 1020.3 9.4
18/08:30am 6.4 1.4 4.6 88 0.8 SSW 20 28 11 15 1018.8 1019.9 9.4
18/08:00am 5.9 0.4 4.2 89 0.8 SSW 22 30 12 16 1018.7 1019.8 9.2
18/07:30am 6.1 0.7 4.4 89 0.8 SSW 22 35 12 19 1018.0 1019.1 9.2
18/07:00am 5.8 -0.1 4.1 89 0.8 SSW 24 33 13 18 1017.7 1018.8 9.2
18/06:30am 6.1 -0.5 4.1 87 0.9 SSW 28 39 15 21 1017.3 1018.4 9.2
18/06:17am 6.1 -0.4 4.6 90 0.7 SSW 28 41 15 22 1017.3 1018.4 9.2
18/06:00am 5.6 2.0 4.9 95 0.3 SSW 13 20 7 11 1017.0 1018.0 9.0
18/05:30am 5.8 0.8 4.8 93 0.5 SSW 20 30 11 16 1016.8 1017.8 8.8
18/05:00am 5.8 0.8 4.6 92 0.5 SSW 20 30 11 16 1016.2 1017.3 8.4
18/04:30am 5.4 -0.8 4.1 91 0.6 SSW 26 32 14 17 1015.9 1016.9 8.2
18/04:00am 4.7 0.5 4.0 95 0.3 SW 15 20 8 11 1015.9 1016.9 7.6
18/03:30am 4.9 0.8 4.2 95 0.3 SW 15 20 8 11 1015.6 1016.6 7.6
18/03:00am 4.9 -0.3 3.7 92 0.5 SSW 20 26 11 14 1015.5 1016.5 7.6
18/02:30am 4.5 -2.4 2.8 89 0.7 SW 28 41 15 22 1015.8 1016.8 7.6
18/02:16am 5.4 -1.3 3.7 89 0.7 SSW 28 46 15 25 1015.9 1016.9 7.0
18/02:00am 5.2 0.0 3.5 89 0.7 SSW 20 30 11 16 1015.5 1016.5 7.0
18/01:30am 5.3 -1.6 2.8 84 1.1 SSW 28 43 15 23 1014.9 1015.9 7.0
18/01:00am 5.3 0.3 3.8 90 0.7 SSW 19 28 10 15 1014.7 1015.7 7.0
18/12:30am 5.3 -0.6 3.8 90 0.7 SSW 24 35 13 19 1014.3 1015.3 7.0
18/12:00am 5.4 -0.2 3.7 89 0.7 SSW 22 32 12 17 1014.3 1015.3 7.0
 
Date/Time
EST
Temp
°C
App
Temp
°C
Dew
Point
°C
Rel
Hum
%
Delta-T
°C
Wind Press
QNH
hPa
Press
MSL
hPa
Rain since
9am
mm
Dir  Spd
km/h
Gust
km/h
Spd
kts
Gust
kts
17/11:30pm 5.0 0.9 4.1 94 0.4 SW 15 22 8 12 1014.4 1015.4 6.8
17/11:00pm 3.7 0.5 3.1 96 0.3 WSW 9 13 5 7 1014.3 1015.3 6.8
17/10:30pm 3.5 -1.9 2.6 94 0.4 S 20 32 11 17 1014.3 1015.3 6.8
17/10:07pm 4.2 -3.0 2.9 91 0.6 S 30 56 16 30 1014.1 1015.1 6.4
17/10:00pm 4.2 -1.5 3.0 92 0.5 S 22 32 12 17 1014.3 1015.3 6.2
17/09:30pm 4.5 -2.3 3.0 90 0.6 SW 28 35 15 19 1013.2 1014.2 5.4
17/09:00pm 4.6 -0.1 3.4 92 0.5 SW 17 35 9 19 1013.0 1014.0 5.4
17/08:30pm 3.4 -0.6 2.7 95 0.3 SSW 13 20 7 11 1013.0 1014.0 5.0
17/08:00pm 3.0 -0.7 2.6 97 0.2 W 11 15 6 8 1012.6 1013.5 2.2
17/07:30pm 2.8 -2.1 2.2 96 0.2 W 17 20 9 11 1011.9 1012.9 1.6
17/07:00pm 2.9 -2.5 2.2 95 0.3 WSW 20 26 11 14 1011.4 1012.3 1.4
17/06:30pm 2.2 -3.4 1.5 95 0.3 W 20 26 11 14 1010.7 1011.7 1.4
17/06:00pm 2.1 -3.5 1.4 95 0.3 W 20 24 11 13 1010.4 1011.3 0.6
17/05:30pm 2.3 -4.0 1.3 93 0.4 WSW 24 32 13 17 1009.8 1010.7 0.2
17/05:00pm 2.7 -3.7 1.2 90 0.6 W 24 32 13 17 1009.3 1010.2 0.0
17/04:30pm 3.1 -3.6 1.6 90 0.6 W 26 37 14 20 1008.8 1009.7 0.0
17/04:00pm 3.6 -3.8 2.0 89 0.7 W 30 41 16 22 1008.7 1009.6 0.0
17/03:30pm 4.5 -3.8 2.0 84 1.0 W 35 48 19 26 1008.0 1008.9 0.0
17/03:00pm 5.6 -2.1 2.4 80 1.4 W 32 44 17 24 1007.5 1008.4 0.0
17/02:30pm 5.4 -1.5 2.8 83 1.1 W 28 37 15 20 1007.3 1008.2 0.0
17/02:00pm 5.7 -2.3 1.8 76 1.7 W 33 43 18 23 1006.8 1007.7 0.0
17/01:30pm 6.3 -2.5 1.6 72 2.0 W 37 50 20 27 1006.6 1007.5 0.0
17/01:00pm 6.0 -3.5 1.5 73 1.9 W 41 52 22 28 1006.5 1007.4 0.0
17/12:30pm 6.6 -3.1 0.7 66 2.4 W 41 54 22 29 1006.3 1007.2 0.0
17/12:00pm 6.8 -1.8 0.0 62 2.8 W 35 48 19 26 1006.4 1007.3 0.0
17/11:30am 6.7 -1.3 0.2 63 2.7 W 32 43 17 23 1006.6 1007.5 0.0
17/11:00am 7.2 -0.9 0.0 60 3.0 WNW 32 41 17 22 1006.6 1007.5 0.0
17/10:30am 7.0 -1.0 0.2 62 2.8 WNW 32 39 17 21 1006.6 1007.5 0.0
17/10:00am 6.5 -0.8 0.0 63 2.7 WNW 28 35 15 19 1007.0 1007.8 0.0
17/09:30am 5.9 -1.1 -0.6 63 2.6 WNW 26 32 14 17 1006.8 1007.7 0.0
17/09:00am 4.2 -1.7 -0.8 70 2.0 NNW 20 24 11 13 1006.6 1007.5 0.0
17/08:30am 3.1 -2.9 -1.6 71 1.8 NW 20 24 11 13 1006.5 1007.4 0.0
17/08:00am 2.5 -3.6 -2.0 72 1.7 NW 20 24 11 13 1006.3 1007.2 0.0
17/07:30am 1.5 -5.8 -2.6 74 1.5 NNW 26 30 14 16 1006.2 1007.1 0.0
17/07:00am 1.0 -5.1 -2.7 76 1.4 NNW 20 26 11 14 1006.0 1006.8 0.0
17/06:30am 1.9 -5.4 -2.6 72 1.6 NW 26 33 14 18 1005.4 1006.3 0.0
17/06:00am -0.1 -5.7 -3.1 80 1.1 NNW 17 22 9 12 1005.8 1006.6 0.0
17/05:30am 0.4 -5.2 -3.0 78 1.2 NNW 17 20 9 11 1005.8 1006.6 0.0
17/05:00am 0.7 -5.8 -2.7 78 1.3 NNW 22 28 12 15 1005.8 1006.6 0.0
17/04:30am -0.3 -6.4 -3.5 79 1.1 NNW 19 22 10 12 1006.4 1007.3 0.0
17/04:00am 0.2 -5.8 -3.3 77 1.2 NW 19 22 10 12 1006.5 1007.4 0.0
17/03:30am 0.1 -6.1 -3.4 77 1.2 NW 20 24 11 13 1006.7 1007.6 0.0
17/03:00am -0.3 -5.6 -3.5 79 1.1 NW 15 20 8 11 1007.0 1007.8 0.0
17/02:30am -0.2 -4.4 -3.6 78 1.2 N 9 13 5 7 1007.3 1008.2 0.0
17/02:00am 0.0 -6.2 -3.2 79 1.1 NW 20 22 11 12 1007.3 1008.2 0.0
17/01:30am 0.6 -5.6 -3.0 77 1.3 NNW 20 24 11 13 1007.4 1008.3 0.0
17/01:00am 0.2 -5.4 -2.8 80 1.1 NW 17 19 9 10 1007.7 1008.6 0.0
17/12:30am 0.7 -6.6 -2.7 78 1.3 NW 26 30 14 16 1007.5 1008.4 0.0
17/12:00am 1.5 -6.5 -2.4 75 1.4 NW 30 35 16 19 1007.7 1008.6 0.0
 
Date/Time
EST
Temp
°C
App
Temp
°C
Dew
Point
°C
Rel
Hum
%
Delta-T
°C
Wind Press
QNH
hPa
Press
MSL
hPa
Rain since
9am
mm
Dir  Spd
km/h
Gust
km/h
Spd
kts
Gust
kts
16/11:30pm 2.5 -5.9 -2.2 71 1.7 WNW 32 39 17 21 1007.7 1008.6 0.0
16/11:00pm 2.2 -5.4 -2.1 73 1.6 NW 28 37 15 20 1008.0 1008.9 0.0
16/10:30pm 2.2 -5.0 -1.9 74 1.5 NW 26 32 14 17 1008.5 1009.4 0.0
16/10:00pm 2.0 -5.2 -1.8 76 1.4 NW 26 32 14 17 1008.5 1009.4 0.0
16/09:30pm 2.1 -4.6 -1.3 78 1.3 NW 24 30 13 16 1008.6 1009.5 0.0
16/09:00pm 0.1 -6.0 -2.6 82 1.0 NW 20 22 11 12 1009.0 1009.9 0.0
16/08:30pm -0.1 -5.3 -2.8 82 1.0 NNW 15 17 8 9 1009.0 1009.9 0.0
16/08:00pm 1.4 -2.3 -2.5 75 1.5 NNW 7 11 4 6 1009.2 1010.1 0.0
16/07:30pm 3.1 -0.8 -1.8 70 1.8 NW 9 15 5 8 1009.2 1010.1 0.0
16/07:00pm 4.2 -1.8 -1.8 65 2.3 WNW 20 30 11 16 1008.9 1009.8 0.0
16/06:30pm 4.3 -2.5 -1.9 64 2.3 NW 24 32 13 17 1008.9 1009.8 0.0
16/06:00pm 4.5 -1.6 -2.1 62 2.5 WNW 20 26 11 14 1008.7 1009.6 0.0
16/05:30pm 5.0 -1.1 -2.1 60 2.7 WNW 20 26 11 14 1008.6 1009.5 0.0
16/05:00pm 5.7 -2.3 -2.4 56 3.1 WNW 30 39 16 21 1008.2 1009.2 0.0
16/04:30pm 6.2 -1.8 -2.4 54 3.3 WNW 30 39 16 21 1008.5 1009.4 0.0
16/04:00pm 6.9 -4.2 -2.8 50 3.7 WNW 46 61 25 33 1007.4 1008.3 0.0
16/03:30pm 7.2 -3.9 -2.8 49 3.8 WNW 46 57 25 31 1007.3 1008.2 0.0
16/03:00pm 7.7 -1.7 -2.6 48 4.0 WNW 37 56 20 30 1007.7 1008.6 0.0
16/02:30pm 7.8 -2.0 -2.8 47 4.1 WNW 39 56 21 30 1007.7 1008.6 0.0
16/02:00pm 8.3 -2.2 -2.6 46 4.3 WNW 43 56 23 30 1007.8 1008.7 0.0
16/01:30pm 8.2 -3.8 -3.6 43 4.5 WNW 50 63 27 34 1007.6 1008.5 0.0
16/01:00pm 8.4 -2.2 -3.1 44 4.4 W 43 56 23 30 1008.4 1009.3 0.0
16/12:30pm 8.5 -1.7 -3.3 43 4.5 WNW 41 54 22 29 1008.6 1009.5 0.0
16/12:00pm 8.2 -2.0 -3.0 45 4.3 WNW 41 52 22 28 1009.2 1010.1 0.0
16/11:30am 8.3 -1.5 -3.2 44 4.4 WNW 39 54 21 29 1009.4 1010.4 0.0
16/11:00am 7.7 -0.4 -3.5 45 4.3 WNW 30 39 16 21 1010.0 1010.9 0.0

Other Formats:

Comma delimited format used in spreadsheet applications
http://www.bom.gov.au/fwo/IDN60801/IDN60801.94929.axf

JavaScript Object Notation format (JSON) in row-major order
http://www.bom.gov.au/fwo/IDN60801/IDN60801.94929.json